BKP100M VTSM-VVTS
Flight info
| Callsign | BKP100M |
|---|---|
| Flight time | N/A |
| Altitude | 37000 |
| Route | UPNEP1B UPNEP R575 SAKDA Y16 TIA/N0404F270 R468 SAPEN/K0748F270 SAPEN5G |
| Aircraft | A319/M-SDE3FGHIRWY/LB1 |
Departure
| Time | N/A |
|---|---|
| Airport | Samui International Airport (VTSM) |
Arrival
| Time | 2026-05-05 17:33 |
|---|---|
| Airport | Tan Son Nhat International Airport (VVTS) |
| Time | Latitude | Longitude | Altitude | Speed | Heading |
|---|---|---|---|---|---|
| 2026-05-05 16:35 | 10.02530 | 100.89122 | 25510 ft | 430 kts | 50° |
| 2026-05-05 16:35 | 10.05054 | 100.92245 | 26037 ft | 433 kts | 50° |
| 2026-05-05 16:36 | 10.06347 | 100.93845 | 26306 ft | 435 kts | 50° |
| 2026-05-05 16:36 | 10.08874 | 100.97022 | 26806 ft | 438 kts | 54° |
| 2026-05-05 16:36 | 10.09943 | 100.98812 | 27045 ft | 440 kts | 62° |
| 2026-05-05 16:36 | 10.11384 | 101.01564 | 27410 ft | 443 kts | 62° |
| 2026-05-05 16:37 | 10.12824 | 101.04335 | 27764 ft | 445 kts | 62° |
| 2026-05-05 16:37 | 10.14264 | 101.07124 | 28111 ft | 447 kts | 62° |
| 2026-05-05 16:37 | 10.15710 | 101.09930 | 28446 ft | 450 kts | 62° |
| 2026-05-05 16:37 | 10.17161 | 101.12749 | 28764 ft | 452 kts | 62° |
| 2026-05-05 16:38 | 10.18625 | 101.15583 | 29080 ft | 454 kts | 62° |
| 2026-05-05 16:38 | 10.20114 | 101.18415 | 29385 ft | 456 kts | 62° |
| 2026-05-05 16:38 | 10.21630 | 101.21257 | 29692 ft | 458 kts | 61° |
| 2026-05-05 16:38 | 10.23160 | 101.24106 | 29982 ft | 460 kts | 61° |
| 2026-05-05 16:39 | 10.24699 | 101.26966 | 30269 ft | 462 kts | 61° |
| 2026-05-05 16:39 | 10.26240 | 101.29837 | 30546 ft | 464 kts | 61° |
| 2026-05-05 16:39 | 10.27783 | 101.32721 | 30914 ft | 464 kts | 61° |
| 2026-05-05 16:39 | 10.29314 | 101.35598 | 31307 ft | 463 kts | 62° |
| 2026-05-05 16:40 | 10.30837 | 101.38467 | 31694 ft | 462 kts | 62° |
| 2026-05-05 16:40 | 10.32359 | 101.41337 | 32072 ft | 461 kts | 62° |
| 2026-05-05 16:40 | 10.33881 | 101.44200 | 32445 ft | 460 kts | 61° |
| 2026-05-05 16:40 | 10.35400 | 101.47055 | 32817 ft | 460 kts | 62° |
| 2026-05-05 16:41 | 10.36915 | 101.49913 | 33189 ft | 459 kts | 62° |
| 2026-05-05 16:41 | 10.38424 | 101.52762 | 33563 ft | 458 kts | 62° |
| 2026-05-05 16:41 | 10.39934 | 101.55607 | 33930 ft | 457 kts | 62° |
| 2026-05-05 16:41 | 10.41446 | 101.58451 | 34298 ft | 456 kts | 62° |
| 2026-05-05 16:42 | 10.42953 | 101.61287 | 34670 ft | 456 kts | 62° |
| 2026-05-05 16:42 | 10.44453 | 101.64119 | 35035 ft | 455 kts | 62° |
| 2026-05-05 16:42 | 10.45952 | 101.66945 | 35386 ft | 454 kts | 62° |
| 2026-05-05 16:42 | 10.47451 | 101.69770 | 35725 ft | 454 kts | 62° |
| 2026-05-05 16:43 | 10.48946 | 101.72586 | 36050 ft | 453 kts | 62° |
| 2026-05-05 16:43 | 10.50440 | 101.75399 | 36361 ft | 452 kts | 62° |
| 2026-05-05 16:43 | 10.51934 | 101.78217 | 36653 ft | 452 kts | 62° |
| 2026-05-05 16:43 | 10.53425 | 101.81037 | 36908 ft | 453 kts | 62° |
| 2026-05-05 16:44 | 10.56403 | 101.86655 | 37010 ft | 451 kts | 62° |
| 2026-05-05 16:44 | 10.59368 | 101.92259 | 37009 ft | 450 kts | 62° |
| 2026-05-05 16:45 | 10.62334 | 101.97862 | 37009 ft | 450 kts | 62° |
| 2026-05-05 16:45 | 10.65298 | 102.03463 | 37009 ft | 450 kts | 62° |
| 2026-05-05 16:46 | 10.68261 | 102.09067 | 37009 ft | 450 kts | 62° |
| 2026-05-05 16:46 | 10.71201 | 102.14639 | 37010 ft | 450 kts | 62° |
| 2026-05-05 16:47 | 10.74157 | 102.20249 | 37010 ft | 450 kts | 62° |
| 2026-05-05 16:47 | 10.77114 | 102.25860 | 37011 ft | 450 kts | 62° |
| 2026-05-05 16:48 | 10.80086 | 102.31472 | 37011 ft | 450 kts | 62° |
| 2026-05-05 16:48 | 10.83042 | 102.37080 | 37011 ft | 450 kts | 62° |
| 2026-05-05 16:49 | 10.85993 | 102.42695 | 37012 ft | 450 kts | 62° |
| 2026-05-05 16:49 | 10.88952 | 102.48310 | 37012 ft | 450 kts | 62° |
| 2026-05-05 16:50 | 10.91906 | 102.53922 | 37012 ft | 450 kts | 62° |
| 2026-05-05 16:50 | 10.94860 | 102.59539 | 37012 ft | 450 kts | 62° |
| 2026-05-05 16:51 | 10.97796 | 102.65122 | 37012 ft | 450 kts | 62° |
| 2026-05-05 16:51 | 11.00752 | 102.70742 | 37012 ft | 450 kts | 62° |
| 2026-05-05 16:52 | 11.03701 | 102.76358 | 37012 ft | 450 kts | 62° |
| 2026-05-05 16:52 | 11.06648 | 102.81982 | 37013 ft | 450 kts | 62° |
| 2026-05-05 16:53 | 11.09600 | 102.87610 | 37013 ft | 450 kts | 62° |
| 2026-05-05 16:53 | 11.12547 | 102.93229 | 37013 ft | 450 kts | 62° |
| 2026-05-05 16:54 | 11.15492 | 102.98855 | 37013 ft | 450 kts | 62° |
| 2026-05-05 16:54 | 11.18140 | 103.04610 | 37012 ft | 449 kts | 76° |
| 2026-05-05 16:55 | 11.18741 | 103.10930 | 37009 ft | 449 kts | 87° |
| 2026-05-05 16:55 | 11.19063 | 103.17249 | 37006 ft | 450 kts | 87° |
| 2026-05-05 16:56 | 11.19439 | 103.23605 | 37000 ft | 450 kts | 85° |
| 2026-05-05 16:56 | 11.20036 | 103.29956 | 37004 ft | 451 kts | 84° |
| 2026-05-05 16:57 | 11.20689 | 103.36306 | 37008 ft | 451 kts | 84° |
| 2026-05-05 16:57 | 11.21291 | 103.42663 | 37010 ft | 451 kts | 85° |
| 2026-05-05 16:58 | 11.21853 | 103.49033 | 37013 ft | 451 kts | 85° |
| 2026-05-05 16:58 | 11.22414 | 103.55386 | 37014 ft | 450 kts | 85° |
| 2026-05-05 16:59 | 11.22984 | 103.61741 | 37014 ft | 450 kts | 85° |
| 2026-05-05 16:59 | 11.23555 | 103.68093 | 37013 ft | 450 kts | 85° |
| 2026-05-05 17:00 | 11.24129 | 103.74453 | 37013 ft | 451 kts | 84° |
| 2026-05-05 17:00 | 11.24701 | 103.80808 | 37009 ft | 451 kts | 85° |
| 2026-05-05 17:01 | 11.25267 | 103.87133 | 37002 ft | 451 kts | 85° |
| 2026-05-05 17:01 | 11.25836 | 103.93504 | 36997 ft | 452 kts | 85° |
| 2026-05-05 17:02 | 11.26403 | 103.99888 | 36995 ft | 453 kts | 85° |
| 2026-05-05 17:02 | 11.26973 | 104.06290 | 37000 ft | 454 kts | 85° |
| 2026-05-05 17:03 | 11.27538 | 104.12691 | 37013 ft | 454 kts | 85° |
| 2026-05-05 17:03 | 11.28102 | 104.19084 | 37022 ft | 453 kts | 85° |
| 2026-05-05 17:04 | 11.28662 | 104.25472 | 37024 ft | 452 kts | 85° |
| 2026-05-05 17:04 | 11.29218 | 104.31846 | 37024 ft | 452 kts | 85° |
| 2026-05-05 17:05 | 11.29782 | 104.38219 | 37022 ft | 451 kts | 85° |
| 2026-05-05 17:05 | 11.30348 | 104.44586 | 37020 ft | 451 kts | 85° |
| 2026-05-05 17:06 | 11.30901 | 104.50957 | 37016 ft | 451 kts | 85° |
| 2026-05-05 17:06 | 11.31446 | 104.57329 | 37014 ft | 452 kts | 85° |
| 2026-05-05 17:07 | 11.32003 | 104.63706 | 37018 ft | 451 kts | 85° |
| 2026-05-05 17:07 | 11.32557 | 104.70074 | 37019 ft | 451 kts | 85° |
| 2026-05-05 17:08 | 11.33100 | 104.76441 | 37020 ft | 451 kts | 85° |
| 2026-05-05 17:08 | 11.33638 | 104.82810 | 37019 ft | 451 kts | 85° |
| 2026-05-05 17:09 | 11.34102 | 104.89175 | 37016 ft | 451 kts | 91° |
| 2026-05-05 17:09 | 11.33193 | 104.95465 | 37016 ft | 450 kts | 103° |
| 2026-05-05 17:10 | 11.31806 | 105.01687 | 37015 ft | 450 kts | 103° |
| 2026-05-05 17:10 | 11.31071 | 105.04791 | 36830 ft | 450 kts | 104° |
| 2026-05-05 17:10 | 11.30293 | 105.07877 | 36579 ft | 450 kts | 105° |
| 2026-05-05 17:11 | 11.29487 | 105.10956 | 36333 ft | 450 kts | 105° |
| 2026-05-05 17:11 | 11.28675 | 105.14034 | 35884 ft | 450 kts | 105° |
| 2026-05-05 17:11 | 11.27864 | 105.17134 | 35041 ft | 456 kts | 105° |
| 2026-05-05 17:11 | 11.27055 | 105.20270 | 34197 ft | 460 kts | 104° |
| 2026-05-05 17:12 | 11.26247 | 105.23436 | 33280 ft | 464 kts | 104° |
| 2026-05-05 17:12 | 11.25436 | 105.26645 | 32260 ft | 470 kts | 104° |
| 2026-05-05 17:12 | 11.24616 | 105.29892 | 31230 ft | 475 kts | 104° |
| 2026-05-05 17:12 | 11.23789 | 105.33152 | 30180 ft | 478 kts | 104° |
| 2026-05-05 17:13 | 11.22959 | 105.36415 | 29143 ft | 471 kts | 104° |
| 2026-05-05 17:13 | 11.22154 | 105.39579 | 28604 ft | 453 kts | 104° |
| 2026-05-05 17:13 | 11.21386 | 105.42595 | 27944 ft | 440 kts | 104° |
| 2026-05-05 17:13 | 11.20620 | 105.45601 | 27297 ft | 437 kts | 104° |
| 2026-05-05 17:14 | 11.19859 | 105.48586 | 26651 ft | 434 kts | 104° |
| 2026-05-05 17:14 | 11.19104 | 105.51549 | 26012 ft | 431 kts | 104° |
| 2026-05-05 17:14 | 11.18353 | 105.54487 | 25365 ft | 427 kts | 104° |
| 2026-05-05 17:14 | 11.17606 | 105.57402 | 24750 ft | 424 kts | 104° |
| 2026-05-05 17:15 | 11.16867 | 105.60293 | 24123 ft | 420 kts | 104° |
| 2026-05-05 17:15 | 11.16137 | 105.63155 | 23506 ft | 416 kts | 104° |
| 2026-05-05 17:15 | 11.15411 | 105.66003 | 22899 ft | 412 kts | 104° |
| 2026-05-05 17:15 | 11.14690 | 105.68820 | 22313 ft | 409 kts | 104° |
| 2026-05-05 17:16 | 11.13885 | 105.71572 | 21914 ft | 400 kts | 114° |
| 2026-05-05 17:16 | 11.12338 | 105.73840 | 21822 ft | 384 kts | 136° |
| 2026-05-05 17:16 | 11.10262 | 105.75524 | 21742 ft | 382 kts | 146° |
| 2026-05-05 17:16 | 11.08003 | 105.76966 | 21658 ft | 383 kts | 149° |
| 2026-05-05 17:17 | 11.05730 | 105.78375 | 21574 ft | 383 kts | 149° |
| 2026-05-05 17:17 | 11.03490 | 105.79833 | 21484 ft | 382 kts | 145° |
| 2026-05-05 17:17 | 11.02082 | 105.80913 | 21428 ft | 382 kts | 141° |
| 2026-05-05 17:17 | 10.99399 | 105.83278 | 21320 ft | 381 kts | 137° |
| 2026-05-05 17:18 | 10.98118 | 105.84497 | 21264 ft | 381 kts | 136° |
| 2026-05-05 17:18 | 10.96195 | 105.86355 | 21180 ft | 381 kts | 136° |
| 2026-05-05 17:18 | 10.94267 | 105.88200 | 21094 ft | 380 kts | 137° |
| 2026-05-05 17:18 | 10.92277 | 105.90060 | 20781 ft | 396 kts | 138° |
| 2026-05-05 17:19 | 10.90212 | 105.91949 | 20531 ft | 401 kts | 138° |
| 2026-05-05 17:19 | 10.88127 | 105.93830 | 20280 ft | 401 kts | 139° |
| 2026-05-05 17:19 | 10.86036 | 105.95704 | 20030 ft | 400 kts | 139° |
| 2026-05-05 17:19 | 10.83951 | 105.97565 | 19780 ft | 398 kts | 139° |
| 2026-05-05 17:20 | 10.81873 | 105.99421 | 19530 ft | 397 kts | 139° |
| 2026-05-05 17:20 | 10.79843 | 106.01319 | 19275 ft | 395 kts | 132° |
| 2026-05-05 17:20 | 10.78369 | 106.03652 | 19024 ft | 394 kts | 114° |
| 2026-05-05 17:20 | 10.77575 | 106.06303 | 18770 ft | 392 kts | 96° |
| 2026-05-05 17:21 | 10.77702 | 106.09059 | 18523 ft | 391 kts | 82° |
| 2026-05-05 17:21 | 10.77866 | 106.11819 | 18270 ft | 390 kts | 91° |
| 2026-05-05 17:21 | 10.77666 | 106.14561 | 18015 ft | 389 kts | 97° |
| 2026-05-05 17:22 | 10.76708 | 106.19934 | 17425 ft | 382 kts | 102° |
| 2026-05-05 17:22 | 10.76179 | 106.22572 | 16870 ft | 377 kts | 101° |
| 2026-05-05 17:22 | 10.75695 | 106.25176 | 16312 ft | 373 kts | 100° |
| 2026-05-05 17:22 | 10.75261 | 106.27768 | 15759 ft | 369 kts | 99° |
| 2026-05-05 17:23 | 10.74870 | 106.30334 | 15190 ft | 366 kts | 98° |
| 2026-05-05 17:23 | 10.74499 | 106.32915 | 14403 ft | 378 kts | 98° |
| 2026-05-05 17:23 | 10.74123 | 106.35588 | 13379 ft | 384 kts | 98° |
| 2026-05-05 17:23 | 10.73743 | 106.38268 | 12359 ft | 380 kts | 98° |
| 2026-05-05 17:24 | 10.73362 | 106.40899 | 11454 ft | 370 kts | 98° |
| 2026-05-05 17:24 | 10.72996 | 106.43397 | 11222 ft | 342 kts | 98° |
| 2026-05-05 17:24 | 10.72994 | 106.45676 | 11086 ft | 316 kts | 75° |
| 2026-05-05 17:24 | 10.73987 | 106.47545 | 10960 ft | 292 kts | 45° |
| 2026-05-05 17:25 | 10.75430 | 106.48895 | 10764 ft | 277 kts | 46° |
| 2026-05-05 17:25 | 10.76110 | 106.50004 | 10631 ft | 272 kts | 71° |
| 2026-05-05 17:25 | 10.76185 | 106.52492 | 10086 ft | 275 kts | 104° |
| 2026-05-05 17:25 | 10.75339 | 106.54254 | 9325 ft | 283 kts | 131° |
| 2026-05-05 17:26 | 10.73786 | 106.55470 | 8560 ft | 286 kts | 158° |
| 2026-05-05 17:26 | 10.71849 | 106.55851 | 7807 ft | 288 kts | 184° |
| 2026-05-05 17:26 | 10.69928 | 106.55312 | 7036 ft | 289 kts | 210° |
| 2026-05-05 17:26 | 10.68444 | 106.53957 | 6267 ft | 289 kts | 237° |
| 2026-05-05 17:27 | 10.67743 | 106.52093 | 5868 ft | 277 kts | 263° |
| 2026-05-05 17:27 | 10.67865 | 106.50211 | 5707 ft | 261 kts | 287° |
| 2026-05-05 17:27 | 10.68661 | 106.48631 | 5587 ft | 245 kts | 306° |
| 2026-05-05 17:27 | 10.69633 | 106.47278 | 5475 ft | 229 kts | 306° |
| 2026-05-05 17:28 | 10.70695 | 106.46137 | 5374 ft | 219 kts | 323° |
| 2026-05-05 17:28 | 10.72037 | 106.45466 | 5073 ft | 218 kts | 349° |
| 2026-05-05 17:28 | 10.73558 | 106.45636 | 4506 ft | 228 kts | 26° |
| 2026-05-05 17:28 | 10.74699 | 106.46702 | 4017 ft | 225 kts | 60° |
| 2026-05-05 17:29 | 10.75307 | 106.48167 | 3444 ft | 225 kts | 70° |
| 2026-05-05 17:29 | 10.75835 | 106.49631 | 3064 ft | 215 kts | 70° |
| 2026-05-05 17:29 | 10.76354 | 106.51022 | 2769 ft | 204 kts | 69° |
| 2026-05-05 17:29 | 10.76845 | 106.52325 | 2518 ft | 191 kts | 69° |
| 2026-05-05 17:30 | 10.77303 | 106.53534 | 2265 ft | 175 kts | 69° |
| 2026-05-05 17:30 | 10.77708 | 106.54606 | 2048 ft | 152 kts | 69° |
| 2026-05-05 17:30 | 10.78066 | 106.55551 | 1854 ft | 140 kts | 69° |
| 2026-05-05 17:30 | 10.78409 | 106.56459 | 1674 ft | 136 kts | 68° |
| 2026-05-05 17:31 | 10.78745 | 106.57350 | 1463 ft | 134 kts | 69° |
| 2026-05-05 17:31 | 10.79080 | 106.58230 | 1273 ft | 133 kts | 68° |
| 2026-05-05 17:31 | 10.79408 | 106.59107 | 1132 ft | 133 kts | 69° |
| 2026-05-05 17:31 | 10.79736 | 106.59980 | 988 ft | 132 kts | 69° |
| 2026-05-05 17:32 | 10.80067 | 106.60855 | 804 ft | 132 kts | 69° |
| 2026-05-05 17:32 | 10.80394 | 106.61724 | 615 ft | 131 kts | 69° |
| 2026-05-05 17:32 | 10.80722 | 106.62589 | 425 ft | 131 kts | 68° |
| 2026-05-05 17:32 | 10.81046 | 106.63455 | 239 ft | 130 kts | 69° |
| 2026-05-05 17:33 | 10.81372 | 106.64312 | 61 ft | 129 kts | 68° |
| 2026-05-05 17:33 | 10.81665 | 106.65078 | 41 ft | 96 kts | 69° |
| 2026-05-05 17:33 | 10.81838 | 106.65547 | 36 ft | 46 kts | 68° |
| 2026-05-05 17:33 | 10.81954 | 106.65852 | 40 ft | 48 kts | 70° |
| 2026-05-05 17:34 | 10.81985 | 106.65945 | 38 ft | 4 kts | 71° |
| 2026-05-05 17:34 | 10.82001 | 106.65990 | 39 ft | 9 kts | 67° |
| 2026-05-05 17:34 | 10.82024 | 106.66065 | 38 ft | 13 kts | 95° |
| 2026-05-05 17:34 | 10.81940 | 106.66079 | 36 ft | 16 kts | 187° |
| 2026-05-05 17:35 | 10.81867 | 106.66070 | 36 ft | 0 kts | 185° |
| 2026-05-05 17:35 | 10.81860 | 106.66070 | 36 ft | 2 kts | 184° |
| 2026-05-05 17:35 | 10.81843 | 106.66069 | 36 ft | 3 kts | 182° |
| 2026-05-05 17:35 | 10.81805 | 106.66068 | 37 ft | 7 kts | 181° |
| 2026-05-05 17:36 | 10.81764 | 106.66086 | 37 ft | 7 kts | 120° |
| 2026-05-05 17:36 | 10.81772 | 106.66139 | 37 ft | 8 kts | 69° |
| 2026-05-05 17:36 | 10.81802 | 106.66216 | 37 ft | 13 kts | 68° |
| 2026-05-05 17:36 | 10.81831 | 106.66294 | 37 ft | 8 kts | 70° |
| 2026-05-05 17:37 | 10.81828 | 106.66345 | 36 ft | 8 kts | 139° |
| 2026-05-05 17:37 | 10.81782 | 106.66365 | 37 ft | 5 kts | 159° |
| 2026-05-05 17:37 | 10.81768 | 106.66370 | 37 ft | 2 kts | 161° |
| 2026-05-05 17:37 | 10.81759 | 106.66373 | 37 ft | 1 kts | 160° |
| 2026-05-05 17:38 | 10.81757 | 106.66374 | 37 ft | 0 kts | 160° |